Time;durP1;ratioP1;P1;durP2;ratioP2;P2;SDS_P1;SDS_P2;PMS_P1;PMS_P2;Temp;Humidity;BMP_temperature;BMP_pressure;BME280_temperature;BME280_humidity;BME280_pressure;Samples;Min_cycle;Max_cycle;Signal;HPM_P1;HPM_P2
2023/05/29 00:00:55;;;;;;;10.05;1.90;;;14.00;59.50;;;;;;5068679;28;20769;-73
2023/05/29 00:03:22;;;;;;;13.77;1.87;;;13.90;59.60;;;;;;5069778;28;20164;-73
2023/05/29 00:05:49;;;;;;;9.48;1.33;;;13.90;59.70;;;;;;5069075;28;20322;-72
2023/05/29 00:08:16;;;;;;;10.38;2.50;;;13.90;59.70;;;;;;5070244;28;20131;-72
2023/05/29 00:10:43;;;;;;;11.77;1.90;;;13.90;59.70;;;;;;5068315;28;20073;-72
2023/05/29 00:13:11;;;;;;;9.15;1.95;;;13.80;59.80;;;;;;5070792;28;20164;-73
2023/05/29 00:15:38;;;;;;;11.33;2.03;;;13.70;59.70;;;;;;5070368;28;20053;-73
2023/05/29 00:18:06;;;;;;;10.13;2.28;;;13.70;59.90;;;;;;5068800;28;20681;-73
2023/05/29 00:20:34;;;;;;;7.30;1.50;;;13.70;59.90;;;;;;5048673;28;20046;-73
2023/05/29 00:23:01;;;;;;;10.07;1.83;;;13.70;60.00;;;;;;5057515;28;20075;-72
2023/05/29 00:25:28;;;;;;;11.30;1.92;;;13.60;60.00;;;;;;5068599;28;20045;-73
2023/05/29 00:27:55;;;;;;;10.47;1.90;;;13.60;60.10;;;;;;5075043;28;20103;-72
2023/05/29 00:30:24;;;;;;;8.93;1.65;;;13.60;60.20;;;;;;5068907;28;20734;-72
2023/05/29 00:32:51;;;;;;;10.38;1.55;;;13.60;60.30;;;;;;5068386;28;20155;-73
2023/05/29 00:35:20;;;;;;;12.52;1.85;;;13.50;60.30;;;;;;5086164;28;20045;-72
2023/05/29 00:37:47;;;;;;;10.82;1.60;;;13.50;60.40;;;;;;5068233;28;20076;-72
2023/05/29 00:40:14;;;;;;;9.53;1.57;;;13.50;60.50;;;;;;5070101;28;20057;-73
2023/05/29 00:42:41;;;;;;;9.50;1.80;;;13.50;60.50;;;;;;5068226;28;20282;-72
2023/05/29 00:45:08;;;;;;;8.63;1.67;;;13.50;60.50;;;;;;5067383;28;20049;-73
2023/05/29 00:47:37;;;;;;;11.13;1.73;;;13.50;60.70;;;;;;5085559;28;20045;-72
2023/05/29 00:50:05;;;;;;;9.27;1.48;;;13.50;60.70;;;;;;5051872;28;20057;-72
2023/05/29 00:52:33;;;;;;;8.77;1.40;;;13.40;60.70;;;;;;5067751;28;20049;-73
2023/05/29 00:55:02;;;;;;;8.52;1.40;;;13.40;60.70;;;;;;5068113;28;20272;-73
2023/05/29 00:57:29;;;;;;;10.07;1.60;;;13.30;60.80;;;;;;5067220;28;20056;-72
2023/05/29 00:59:57;;;;;;;9.93;1.70;;;13.30;60.90;;;;;;5051667;28;20558;-72
2023/05/29 01:02:24;;;;;;;11.93;1.77;;;13.30;61.00;;;;;;5050297;28;20204;-73
2023/05/29 01:04:54;;;;;;;8.97;1.53;;;13.20;61.10;;;;;;5051359;28;20499;-72
2023/05/29 01:07:21;;;;;;;8.55;1.70;;;13.20;61.30;;;;;;5050792;28;20730;-72
2023/05/29 01:09:48;;;;;;;11.10;1.40;;;13.20;61.30;;;;;;5050861;28;20612;-73
2023/05/29 01:12:26;;;;;;;8.85;1.40;;;13.20;61.30;;;;;;5047305;28;20485;-72
2023/05/29 01:15:18;;;;;;;10.07;1.52;;;13.10;61.30;;;;;;5048675;28;20675;-73
2023/05/29 01:18:05;;;;;;;8.37;1.47;;;13.10;61.30;;;;;;5067142;28;20079;-72
2023/05/29 01:20:41;;;;;;;12.38;2.10;;;13.10;61.10;;;;;;5098433;28;20795;-72
2023/05/29 01:23:23;;;;;;;7.57;1.33;;;13.10;61.20;;;;;;5050379;28;20493;-72
2023/05/29 01:26:08;;;;;;;9.25;1.63;;;13.10;61.10;;;;;;5066352;28;20056;-72
2023/05/29 01:28:43;;;;;;;8.40;1.33;;;13.10;61.00;;;;;;5049205;28;20114;-72
2023/05/29 01:31:11;;;;;;;6.73;1.37;;;13.10;61.00;;;;;;5066345;28;20554;-72
2023/05/29 01:33:41;;;;;;;10.80;1.80;;;13.00;61.20;;;;;;5065969;28;20276;-73
2023/05/29 01:36:09;;;;;;;10.63;1.58;;;13.00;61.20;;;;;;5065733;28;20056;-73
2023/05/29 01:38:35;;;;;;;10.20;1.58;;;13.00;61.30;;;;;;5068080;28;20641;-72
2023/05/29 01:41:03;;;;;;;8.35;1.50;;;13.00;61.20;;;;;;5049881;28;20045;-72
2023/05/29 01:43:31;;;;;;;8.83;1.47;;;13.00;61.30;;;;;;5067700;28;20623;-72
2023/05/29 01:46:00;;;;;;;9.68;1.90;;;12.90;61.20;;;;;;5050647;28;20280;-73
2023/05/29 01:48:28;;;;;;;8.90;1.63;;;12.90;61.40;;;;;;5050575;28;20045;-73
2023/05/29 01:50:57;;;;;;;10.55;1.50;;;12.90;61.30;;;;;;5050291;28;20048;-72
2023/05/29 01:53:25;;;;;;;9.90;1.58;;;12.90;61.30;;;;;;5063091;28;20767;-72
2023/05/29 01:55:52;;;;;;;7.60;1.40;;;12.90;61.30;;;;;;5087671;28;20056;-73
2023/05/29 01:58:22;;;;;;;9.80;1.95;;;12.90;61.40;;;;;;5050426;28;20355;-72
2023/05/29 02:00:49;;;;;;;8.32;1.42;;;12.80;61.60;;;;;;5050264;28;20051;-72
2023/05/29 02:03:18;;;;;;;11.70;1.85;;;12.80;61.60;;;;;;5050161;28;20155;-72
2023/05/29 02:05:45;;;;;;;11.13;1.77;;;12.80;61.70;;;;;;5067266;28;20045;-72
2023/05/29 02:08:12;;;;;;;8.53;1.30;;;12.70;61.70;;;;;;5049592;28;20049;-72
2023/05/29 02:10:39;;;;;;;7.55;1.40;;;12.70;61.90;;;;;;5045061;28;20249;-72
2023/05/29 02:13:06;;;;;;;8.73;1.42;;;12.70;61.90;;;;;;5029980;28;20527;-72
2023/05/29 02:15:33;;;;;;;11.48;1.48;;;12.70;62.10;;;;;;5063407;28;20052;-72
2023/05/29 02:18:00;;;;;;;10.73;1.58;;;12.70;62.00;;;;;;5050388;28;20053;-72
2023/05/29 02:20:30;;;;;;;8.37;1.43;;;12.70;62.00;;;;;;5049990;28;20047;-72
2023/05/29 02:22:57;;;;;;;9.02;1.30;;;12.60;62.00;;;;;;5049734;28;20248;-72
2023/05/29 02:25:25;;;;;;;11.38;1.60;;;12.60;62.10;;;;;;5066107;28;20052;-72
2023/05/29 02:27:52;;;;;;;8.30;1.25;;;12.50;62.00;;;;;;5046588;28;20053;-72
2023/05/29 02:30:20;;;;;;;10.95;1.50;;;12.50;62.20;;;;;;5043495;28;20131;-72
2023/05/29 02:32:48;;;;;;;9.77;1.30;;;12.50;62.20;;;;;;5066437;28;20584;-72
2023/05/29 02:35:17;;;;;;;10.95;1.95;;;12.50;62.20;;;;;;5046366;28;20281;-72
2023/05/29 02:37:45;;;;;;;9.25;1.20;;;12.50;62.20;;;;;;5080312;28;20454;-72
2023/05/29 02:40:12;;;;;;;10.10;1.50;;;12.50;62.20;;;;;;5092482;28;20049;-72
2023/05/29 02:42:39;;;;;;;10.68;2.15;;;12.50;62.30;;;;;;5048397;28;20045;-72
2023/05/29 02:45:07;;;;;;;8.87;1.40;;;12.40;62.30;;;;;;5066488;28;20049;-72
2023/05/29 02:47:34;;;;;;;9.48;1.58;;;12.40;62.20;;;;;;5066510;28;20342;-72
2023/05/29 02:50:01;;;;;;;14.38;1.70;;;12.30;62.30;;;;;;5049269;28;20048;-73
2023/05/29 02:52:28;;;;;;;9.50;1.45;;;12.30;62.40;;;;;;5046060;28;20137;-72
2023/05/29 02:54:56;;;;;;;6.75;1.45;;;12.30;62.40;;;;;;5049595;28;20056;-72
2023/05/29 02:57:24;;;;;;;9.57;1.47;;;12.30;62.40;;;;;;5066481;28;20041;-73
2023/05/29 02:59:51;;;;;;;7.80;1.70;;;12.20;62.40;;;;;;5061311;28;20663;-73
2023/05/29 03:02:18;;;;;;;8.15;1.20;;;12.20;62.50;;;;;;5045570;28;20057;-72
2023/05/29 03:04:46;;;;;;;7.95;1.38;;;12.20;62.50;;;;;;5099381;28;20049;-73
2023/05/29 03:07:13;;;;;;;6.63;1.17;;;12.10;62.60;;;;;;5049533;28;20089;-72
2023/05/29 03:09:40;;;;;;;8.50;1.87;;;12.10;62.60;;;;;;5067483;28;20130;-73
2023/05/29 03:12:09;;;;;;;7.82;1.40;;;12.10;62.70;;;;;;5049111;28;20276;-72
2023/05/29 03:14:36;;;;;;;7.88;1.40;;;12.10;62.60;;;;;;5048726;28;20055;-73
2023/05/29 03:17:09;;;;;;;11.25;2.00;;;12.10;62.60;;;;;;5061466;28;20064;-72
2023/05/29 03:19:36;;;;;;;8.98;1.65;;;12.00;62.70;;;;;;5045854;28;20535;-72
2023/05/29 03:22:04;;;;;;;9.37;2.00;;;12.00;62.70;;;;;;5087082;28;20048;-72
2023/05/29 03:24:34;;;;;;;9.43;1.60;;;12.00;62.70;;;;;;5049140;28;20317;-72
2023/05/29 03:27:03;;;;;;;9.60;1.65;;;12.00;62.70;;;;;;5053462;28;20144;-72
2023/05/29 03:29:32;;;;;;;10.25;1.50;;;11.90;62.60;;;;;;5049173;28;20165;-72
2023/05/29 03:32:02;;;;;;;6.95;1.40;;;11.90;62.80;;;;;;5048910;28;20652;-73
2023/05/29 03:34:31;;;;;;;10.77;1.83;;;11.90;62.70;;;;;;5044535;28;20100;-73
2023/05/29 03:37:01;;;;;;;9.10;1.52;;;11.90;62.70;;;;;;5035907;28;20861;-72
2023/05/29 03:39:29;;;;;;;7.60;1.40;;;11.90;62.90;;;;;;5048894;28;20055;-72
2023/05/29 03:41:58;;;;;;;9.50;1.50;;;11.90;62.90;;;;;;5048787;28;20045;-72
2023/05/29 03:44:25;;;;;;;6.90;1.58;;;11.90;62.90;;;;;;5045611;28;20060;-72
2023/05/29 03:46:53;;;;;;;8.53;1.40;;;11.80;62.90;;;;;;5034284;28;20049;-72
2023/05/29 03:49:20;;;;;;;9.65;1.50;;;11.80;63.00;;;;;;5082591;28;20252;-72
2023/05/29 03:51:47;;;;;;;7.57;1.50;;;11.70;62.80;;;;;;5048165;28;20052;-73
2023/05/29 03:54:15;;;;;;;10.55;1.80;;;11.70;62.80;;;;;;5048742;28;20514;-72
2023/05/29 03:56:44;;;;;;;11.07;2.00;;;11.70;62.90;;;;;;5046861;28;20510;-72
2023/05/29 03:59:13;;;;;;;7.90;1.57;;;11.70;62.90;;;;;;5082114;28;20052;-72
2023/05/29 04:01:40;;;;;;;10.10;1.90;;;11.70;63.00;;;;;;5048649;28;20402;-72
2023/05/29 04:04:08;;;;;;;12.05;1.75;;;11.70;63.00;;;;;;5041763;28;20176;-72
2023/05/29 04:06:38;;;;;;;9.48;1.60;;;11.60;63.20;;;;;;5061536;28;20156;-72
2023/05/29 04:09:06;;;;;;;12.57;1.60;;;11.50;63.20;;;;;;5042698;28;20049;-72
2023/05/29 04:11:35;;;;;;;12.00;1.50;;;11.50;63.10;;;;;;5092540;28;20084;-72
2023/05/29 04:14:02;;;;;;;9.43;1.83;;;11.50;63.00;;;;;;5046999;28;20286;-73
2023/05/29 04:16:29;;;;;;;10.57;1.83;;;11.50;63.20;;;;;;5064014;28;20445;-72
2023/05/29 04:18:56;;;;;;;9.40;1.52;;;11.50;63.30;;;;;;5066488;28;20052;-73
2023/05/29 04:21:27;;;;;;;7.75;1.73;;;11.50;63.40;;;;;;5048453;28;20045;-72
2023/05/29 04:23:55;;;;;;;6.90;1.73;;;11.50;63.50;;;;;;5080805;28;20048;-72
2023/05/29 04:26:25;;;;;;;10.35;2.20;;;11.40;63.60;;;;;;5048535;28;20256;-72
2023/05/29 04:28:56;;;;;;;11.88;2.10;;;11.40;63.70;;;;;;5048674;28;20550;-72
2023/05/29 04:31:24;;;;;;;13.27;1.98;;;11.40;64.00;;;;;;5081597;28;20041;-72
2023/05/29 04:33:55;;;;;;;9.68;2.10;;;11.40;64.10;;;;;;5050098;28;20160;-72
2023/05/29 04:36:25;;;;;;;9.60;2.07;;;11.40;64.10;;;;;;5052018;28;20132;-72
2023/05/29 04:38:54;;;;;;;10.80;1.58;;;11.30;64.30;;;;;;5051766;28;20256;-73
2023/05/29 04:41:28;;;;;;;10.77;1.80;;;11.30;64.20;;;;;;5081061;28;20126;-72
2023/05/29 04:43:56;;;;;;;10.00;1.77;;;11.30;64.10;;;;;;5050588;28;20699;-73
2023/05/29 04:46:25;;;;;;;11.32;2.03;;;11.30;64.40;;;;;;5051635;28;20053;-73
2023/05/29 04:48:53;;;;;;;11.13;2.00;;;11.30;64.30;;;;;;5051790;28;20048;-72
2023/05/29 04:51:21;;;;;;;9.82;1.70;;;11.30;64.30;;;;;;5068308;28;20268;-73
2023/05/29 04:53:49;;;;;;;9.18;1.48;;;11.30;64.40;;;;;;5068494;28;20049;-73
2023/05/29 04:56:20;;;;;;;8.13;1.50;;;11.30;64.50;;;;;;5051280;28;20507;-72
2023/05/29 04:58:48;;;;;;;6.85;1.48;;;11.30;64.50;;;;;;5046819;28;20045;-73
2023/05/29 05:01:15;;;;;;;9.27;2.13;;;11.30;64.50;;;;;;5035548;28;20076;-72
2023/05/29 05:03:43;;;;;;;9.45;1.60;;;11.30;64.50;;;;;;5068393;28;20280;-73
2023/05/29 05:06:12;;;;;;;8.57;1.80;;;11.30;64.70;;;;;;5051557;28;20053;-73
2023/05/29 05:08:39;;;;;;;10.23;1.65;;;11.20;64.80;;;;;;5068302;28;20051;-72
2023/05/29 05:11:06;;;;;;;11.85;1.70;;;11.20;65.00;;;;;;5043674;28;20129;-73
2023/05/29 05:13:35;;;;;;;8.27;1.80;;;11.20;64.90;;;;;;5085019;28;20541;-73
2023/05/29 05:16:02;;;;;;;9.00;1.92;;;11.20;64.90;;;;;;5050508;28;20585;-73
2023/05/29 05:18:30;;;;;;;11.18;1.83;;;11.20;64.80;;;;;;5068277;28;20110;-73
2023/05/29 05:21:04;;;;;;;7.55;1.60;;;11.20;64.80;;;;;;5068250;28;20068;-73
2023/05/29 05:23:31;;;;;;;8.45;1.58;;;11.20;64.70;;;;;;5051447;28;20096;-73
2023/05/29 05:25:58;;;;;;;10.90;1.70;;;11.20;64.90;;;;;;5051006;28;20045;-72
2023/05/29 05:28:27;;;;;;;10.73;1.48;;;11.20;64.90;;;;;;5051667;28;20256;-73
2023/05/29 05:30:56;;;;;;;9.25;1.63;;;11.20;65.00;;;;;;5047178;28;20511;-73
2023/05/29 05:33:23;;;;;;;10.30;2.20;;;11.30;65.00;;;;;;5047000;28;20053;-73
2023/05/29 05:35:51;;;;;;;10.30;1.55;;;11.20;65.10;;;;;;5067780;28;20091;-72
2023/05/29 05:38:19;;;;;;;8.83;1.63;;;11.20;65.20;;;;;;5067669;28;20053;-73
2023/05/29 05:40:46;;;;;;;10.82;1.33;;;11.30;65.50;;;;;;5047021;28;20343;-73
2023/05/29 05:43:21;;;;;;;9.93;1.77;;;11.20;65.70;;;;;;5046598;28;20410;-73
2023/05/29 05:46:19;;;;;;;12.38;1.90;;;11.30;65.50;;;;;;5059051;28;20056;-73
2023/05/29 05:48:47;;;;;;;7.95;1.70;;;11.30;65.40;;;;;;5049768;28;20045;-73
2023/05/29 05:51:14;;;;;;;12.23;1.87;;;11.30;65.30;;;;;;5068739;28;20053;-73
2023/05/29 05:53:43;;;;;;;11.30;1.70;;;11.30;65.40;;;;;;5050697;28;20296;-73
2023/05/29 05:56:10;;;;;;;8.80;1.70;;;11.30;65.60;;;;;;5067723;28;20049;-73
2023/05/29 05:58:38;;;;;;;8.20;1.70;;;11.40;66.00;;;;;;5047476;28;20054;-73
2023/05/29 06:01:07;;;;;;;8.90;1.67;;;11.40;66.00;;;;;;5063689;28;20972;-73
2023/05/29 06:03:37;;;;;;;8.77;1.70;;;11.40;66.20;;;;;;5098187;28;20049;-73
2023/05/29 06:06:08;;;;;;;7.65;1.40;;;11.40;66.20;;;;;;5049751;28;20256;-73
2023/05/29 06:08:35;;;;;;;8.15;1.92;;;11.40;66.30;;;;;;5067351;28;20063;-73
2023/05/29 06:11:03;;;;;;;9.63;1.52;;;11.50;66.50;;;;;;5049876;28;20051;-73
2023/05/29 06:13:31;;;;;;;11.13;2.20;;;11.50;66.40;;;;;;5050654;28;20359;-73
2023/05/29 06:16:06;;;;;;;7.73;1.80;;;11.50;66.40;;;;;;5050310;28;20053;-72
2023/05/29 06:18:33;;;;;;;10.52;1.85;;;11.50;66.40;;;;;;5067599;28;20395;-73
2023/05/29 06:21:02;;;;;;;9.90;1.90;;;11.50;66.20;;;;;;5050163;28;20041;-73
2023/05/29 06:23:30;;;;;;;7.60;1.30;;;11.50;66.30;;;;;;5046303;28;20045;-73
2023/05/29 06:25:57;;;;;;;14.80;2.35;;;11.50;66.20;;;;;;5031595;28;20053;-73
2023/05/29 06:28:25;;;;;;;8.90;1.57;;;11.60;66.20;;;;;;5050480;28;20128;-73
2023/05/29 06:30:52;;;;;;;9.95;1.83;;;11.70;66.30;;;;;;5066663;28;20278;-73
2023/05/29 06:33:21;;;;;;;10.23;1.75;;;11.70;66.20;;;;;;5063740;28;20057;-73
2023/05/29 06:35:48;;;;;;;10.27;1.60;;;11.70;66.40;;;;;;5047156;28;20491;-73
2023/05/29 06:38:18;;;;;;;7.35;1.70;;;11.70;66.30;;;;;;5066979;28;20045;-73
2023/05/29 06:40:46;;;;;;;7.33;1.50;;;11.80;66.40;;;;;;5048674;28;20045;-73
2023/05/29 06:43:13;;;;;;;11.75;1.98;;;11.90;66.30;;;;;;5050090;28;20374;-73
2023/05/29 06:45:43;;;;;;;8.57;1.88;;;11.90;66.20;;;;;;5050027;28;20048;-73
2023/05/29 06:48:11;;;;;;;11.70;1.85;;;11.90;66.00;;;;;;5101255;28;21074;-73
2023/05/29 06:50:40;;;;;;;8.98;1.98;;;11.90;66.00;;;;;;5049986;28;20051;-73
2023/05/29 06:53:28;;;;;;;10.60;1.90;;;12.00;66.00;;;;;;5066990;28;20056;-73
2023/05/29 06:55:57;;;;;;;13.43;2.03;;;12.00;65.80;;;;;;5065777;28;20330;-72
2023/05/29 06:58:24;;;;;;;9.75;2.00;;;12.10;65.60;;;;;;5065848;28;20092;-72
2023/05/29 07:00:51;;;;;;;11.05;1.98;;;12.10;65.50;;;;;;5046865;28;20400;-72
2023/05/29 07:03:52;;;;;;;13.68;2.63;;;12.20;65.30;;;;;;5061454;28;20067;-72
2023/05/29 07:06:19;;;;;;;13.30;2.13;;;12.20;65.30;;;;;;5054313;28;21022;-72
2023/05/29 07:08:47;;;;;;;11.68;2.25;;;12.30;65.20;;;;;;5076046;28;20276;-72
2023/05/29 07:11:15;;;;;;;35.22;4.28;;;12.30;65.20;;;;;;5087534;28;20056;-72
2023/05/29 07:13:43;;;;;;;13.38;2.15;;;12.30;65.10;;;;;;5061378;28;20062;-72
2023/05/29 07:16:10;;;;;;;11.23;1.83;;;12.30;64.80;;;;;;5053094;28;20060;-72
2023/05/29 07:18:38;;;;;;;11.50;2.00;;;12.40;64.80;;;;;;5058705;28;20439;-72
2023/05/29 07:21:08;;;;;;;11.95;2.13;;;12.40;64.80;;;;;;5056605;28;20305;-72
2023/05/29 07:23:35;;;;;;;12.05;2.65;;;12.50;64.80;;;;;;5062687;28;20079;-72
2023/05/29 07:26:03;;;;;;;13.93;2.15;;;12.50;64.70;;;;;;5108952;27;20053;-72
2023/05/29 07:28:31;;;;;;;10.48;2.80;;;12.50;64.60;;;;;;5058480;28;20049;-72
2023/05/29 07:30:58;;;;;;;11.33;2.10;;;12.50;64.60;;;;;;5074859;28;20118;-72
2023/05/29 07:33:26;;;;;;;12.85;2.38;;;12.50;64.50;;;;;;5092774;28;20390;-73
2023/05/29 07:35:56;;;;;;;11.75;2.85;;;12.60;64.40;;;;;;5088130;28;20498;-72
2023/05/29 07:38:23;;;;;;;11.65;2.22;;;12.60;64.30;;;;;;5102504;27;20050;-73
2023/05/29 07:40:50;;;;;;;10.90;2.72;;;12.70;64.20;;;;;;5078185;28;20148;-72
2023/05/29 07:43:51;;;;;;;9.43;2.20;;;12.70;64.40;;;;;;5063604;28;20049;-72
2023/05/29 07:46:19;;;;;;;10.40;1.85;;;12.80;64.40;;;;;;5067778;28;20267;-72
2023/05/29 07:48:49;;;;;;;10.73;2.10;;;12.80;64.20;;;;;;5075566;28;20140;-72
2023/05/29 07:51:17;;;;;;;11.75;2.33;;;12.90;64.10;;;;;;5073201;28;20918;-72
2023/05/29 07:53:47;;;;;;;12.60;2.83;;;12.90;64.00;;;;;;5056852;28;20041;-72
2023/05/29 07:56:14;;;;;;;14.20;2.40;;;12.90;63.50;;;;;;5087306;28;20053;-72
2023/05/29 07:58:42;;;;;;;11.77;2.33;;;13.00;63.30;;;;;;5057793;28;21121;-72
2023/05/29 08:01:10;;;;;;;15.43;2.60;;;13.00;63.20;;;;;;5042714;28;20046;-72
2023/05/29 08:03:37;;;;;;;12.18;2.40;;;13.00;63.30;;;;;;5043507;28;20099;-72
2023/05/29 08:06:22;;;;;;;10.93;2.15;;;13.10;63.30;;;;;;5055616;28;20050;-72
2023/05/29 08:08:49;;;;;;;9.63;2.10;;;13.10;63.30;;;;;;5057098;28;20044;-73
2023/05/29 08:11:17;;;;;;;9.40;2.42;;;13.10;63.30;;;;;;5062735;28;20841;-73
2023/05/29 08:13:44;;;;;;;15.18;2.45;;;13.20;63.20;;;;;;5076941;28;20847;-73
2023/05/29 08:16:14;;;;;;;10.63;2.35;;;13.20;63.20;;;;;;5076968;28;20654;-73
2023/05/29 08:18:41;;;;;;;8.68;2.22;;;13.30;63.00;;;;;;5102171;27;20056;-73
2023/05/29 08:21:09;;;;;;;15.13;2.60;;;13.30;63.10;;;;;;5069524;28;20041;-73
2023/05/29 08:23:36;;;;;;;12.18;1.95;;;13.40;63.10;;;;;;5045493;28;20288;-72
2023/05/29 08:26:03;;;;;;;11.18;2.63;;;13.40;63.30;;;;;;5058376;28;20092;-73
2023/05/29 08:28:30;;;;;;;12.23;2.47;;;13.50;63.20;;;;;;5048932;28;20129;-73
2023/05/29 08:30:57;;;;;;;11.27;2.45;;;13.50;63.30;;;;;;5067440;28;20052;-73
2023/05/29 08:33:26;;;;;;;13.80;2.57;;;13.50;63.20;;;;;;5068508;28;20052;-74
2023/05/29 08:35:53;;;;;;;12.07;2.35;;;13.60;63.20;;;;;;5064256;28;20264;-74
2023/05/29 08:38:21;;;;;;;11.35;2.13;;;13.60;63.20;;;;;;5054878;28;20123;-72
2023/05/29 08:40:49;;;;;;;9.68;2.53;;;13.70;63.60;;;;;;5093017;28;20060;-73
2023/05/29 08:43:20;;;;;;;9.75;2.20;;;13.70;63.70;;;;;;5045251;28;20140;-73
2023/05/29 08:45:53;;;;;;;9.80;2.17;;;13.80;63.30;;;;;;5056619;28;20048;-73
2023/05/29 08:48:23;;;;;;;11.60;2.20;;;13.90;63.40;;;;;;5059612;28;20260;-72
2023/05/29 08:50:54;;;;;;;11.38;2.25;;;13.90;63.20;;;;;;5060997;28;20127;-72
2023/05/29 08:53:22;;;;;;;10.88;2.20;;;14.00;63.00;;;;;;5047035;28;20176;-72
2023/05/29 08:55:51;;;;;;;11.90;2.45;;;14.00;62.70;;;;;;5069526;28;20074;-73
2023/05/29 08:58:19;;;;;;;12.43;2.37;;;14.10;62.90;;;;;;5097667;27;20576;-73
2023/05/29 09:00:48;;;;;;;11.10;2.40;;;14.20;62.90;;;;;;5103991;27;20291;-73
2023/05/29 09:03:17;;;;;;;11.40;2.05;;;14.20;62.90;;;;;;5068401;28;20538;-73
2023/05/29 09:05:45;;;;;;;8.73;2.22;;;14.30;62.80;;;;;;5070972;28;20107;-73
2023/05/29 09:08:14;;;;;;;10.02;2.65;;;14.30;62.50;;;;;;5106671;27;20056;-73
2023/05/29 09:10:43;;;;;;;11.37;2.33;;;14.40;62.40;;;;;;5110343;27;20116;-72
2023/05/29 09:13:11;;;;;;;10.25;2.40;;;14.50;62.20;;;;;;5078030;28;20315;-73
2023/05/29 09:15:40;;;;;;;11.07;2.30;;;14.50;62.00;;;;;;5076528;28;20156;-72
2023/05/29 09:18:08;;;;;;;9.38;2.08;;;14.60;61.90;;;;;;5080750;28;20516;-73
2023/05/29 09:20:36;;;;;;;11.18;2.10;;;14.60;61.70;;;;;;5074134;28;20084;-73
2023/05/29 09:23:05;;;;;;;11.80;2.10;;;14.70;61.60;;;;;;5108849;27;20652;-72
2023/05/29 09:25:35;;;;;;;11.63;2.33;;;14.70;61.50;;;;;;5071068;28;20776;-72
2023/05/29 09:28:05;;;;;;;15.15;2.55;;;14.80;60.80;;;;;;5102172;27;20045;-72
2023/05/29 09:30:35;;;;;;;11.85;2.17;;;14.80;60.70;;;;;;5107310;27;20138;-73
2023/05/29 09:33:04;;;;;;;11.35;2.50;;;14.80;60.60;;;;;;5060609;28;20049;-73
2023/05/29 09:35:35;;;;;;;8.80;1.97;;;14.90;60.60;;;;;;5068528;28;20053;-73
2023/05/29 09:38:03;;;;;;;11.05;2.05;;;14.90;60.80;;;;;;5065194;28;20275;-73
2023/05/29 09:40:37;;;;;;;11.35;1.95;;;15.00;60.90;;;;;;5064775;28;20536;-72
2023/05/29 09:43:11;;;;;;;12.60;2.17;;;15.00;60.60;;;;;;5061251;28;20052;-73
2023/05/29 09:45:40;;;;;;;14.27;2.53;;;15.00;60.20;;;;;;5067517;28;20055;-73
2023/05/29 09:48:08;;;;;;;11.33;2.23;;;15.10;60.10;;;;;;5042525;28;20049;-73
2023/05/29 09:50:36;;;;;;;9.90;2.15;;;15.20;60.10;;;;;;5068954;28;20264;-73
2023/05/29 09:53:03;;;;;;;11.27;2.50;;;15.20;60.00;;;;;;5067280;28;20064;-73
2023/05/29 09:55:33;;;;;;;12.73;2.22;;;15.30;59.60;;;;;;5067350;28;20052;-73
2023/05/29 09:58:02;;;;;;;10.40;2.05;;;15.30;59.50;;;;;;5068108;28;20929;-73
2023/05/29 10:00:30;;;;;;;8.97;2.00;;;15.40;59.60;;;;;;5061160;28;20053;-72
2023/05/29 10:02:58;;;;;;;13.30;2.30;;;15.40;59.90;;;;;;5062576;28;20284;-74
2023/05/29 10:05:25;;;;;;;9.32;2.10;;;15.50;59.80;;;;;;5098100;28;20049;-74
2023/05/29 10:07:55;;;;;;;11.23;2.22;;;15.50;59.10;;;;;;5065789;28;20061;-74
2023/05/29 10:10:26;;;;;;;9.93;2.13;;;15.60;59.10;;;;;;5065202;28;20124;-73
2023/05/29 10:12:55;;;;;;;12.43;2.57;;;15.60;59.30;;;;;;5046083;28;20077;-73
2023/05/29 10:15:29;;;;;;;8.60;2.10;;;15.60;59.20;;;;;;5086294;27;20264;-73
2023/05/29 10:18:04;;;;;;;14.38;2.25;;;15.70;59.10;;;;;;5055572;28;20049;-73
2023/05/29 10:20:34;;;;;;;9.50;2.47;;;15.80;59.20;;;;;;5056228;28;20174;-73
2023/05/29 10:23:02;;;;;;;11.07;2.03;;;15.80;59.30;;;;;;5057761;28;20056;-73
2023/05/29 10:25:33;;;;;;;8.83;2.00;;;15.90;59.00;;;;;;5062278;28;20849;-73
2023/05/29 10:28:02;;;;;;;9.85;2.50;;;16.00;59.00;;;;;;5066390;28;21200;-73
2023/05/29 10:30:37;;;;;;;12.70;2.58;;;16.00;58.90;;;;;;5063549;28;20052;-73
2023/05/29 10:33:34;;;;;;;9.38;1.90;;;16.10;59.00;;;;;;5058155;28;20912;-73
2023/05/29 10:36:10;;;;;;;11.55;2.13;;;16.10;58.20;;;;;;5054037;28;20056;-73
2023/05/29 10:38:38;;;;;;;8.40;2.00;;;16.20;57.80;;;;;;5055819;28;20973;-73
2023/05/29 10:41:39;;;;;;;9.65;1.70;;;16.20;57.60;;;;;;5061209;28;20252;-73
2023/05/29 10:44:39;;;;;;;10.52;2.35;;;16.30;58.00;;;;;;5054489;28;20052;-73
2023/05/29 10:47:10;;;;;;;11.20;1.92;;;16.40;58.40;;;;;;5099016;28;20128;-74
2023/05/29 10:49:37;;;;;;;11.25;2.20;;;16.40;58.30;;;;;;5035688;28;20076;-73
2023/05/29 10:52:06;;;;;;;13.90;2.63;;;16.40;57.20;;;;;;5063376;28;20052;-73
2023/05/29 10:54:53;;;;;;;12.10;2.80;;;16.50;57.90;;;;;;5055148;28;20288;-73
2023/05/29 10:57:23;;;;;;;12.73;2.63;;;16.50;57.80;;;;;;5090139;28;20055;-73
2023/05/29 10:59:59;;;;;;;10.45;2.00;;;16.60;57.30;;;;;;5093563;28;20808;-73
2023/05/29 11:02:28;;;;;;;10.13;2.05;;;16.70;57.30;;;;;;5065961;28;20052;-73
2023/05/29 11:05:24;;;;;;;7.77;1.83;;;16.70;57.50;;;;;;5056823;28;20052;-73
2023/05/29 11:07:57;;;;;;;11.00;2.00;;;16.80;57.30;;;;;;5029272;28;20283;-73
2023/05/29 11:10:57;;;;;;;8.57;2.08;;;16.80;57.20;;;;;;5063688;28;20049;-73
2023/05/29 11:13:26;;;;;;;13.07;2.35;;;16.90;57.50;;;;;;5062201;28;20099;-73
2023/05/29 11:16:21;;;;;;;16.40;2.47;;;17.00;56.60;;;;;;5064116;28;20056;-72
2023/05/29 11:18:50;;;;;;;11.67;2.30;;;17.00;56.90;;;;;;5020335;28;20136;-72
2023/05/29 11:21:35;;;;;;;10.90;2.15;;;17.10;56.30;;;;;;5075510;28;20291;-72
2023/05/29 11:24:06;;;;;;;14.15;2.60;;;17.20;56.30;;;;;;5045950;28;20133;-72
2023/05/29 11:26:34;;;;;;;10.00;2.05;;;17.20;56.10;;;;;;5061121;28;20053;-71
2023/05/29 11:29:04;;;;;;;9.60;2.17;;;17.20;56.10;;;;;;5065916;28;20061;-72
2023/05/29 11:31:34;;;;;;;8.57;1.93;;;17.20;56.20;;;;;;5054467;28;20065;-72
2023/05/29 11:34:04;;;;;;;9.82;1.80;;;17.30;56.70;;;;;;5063436;28;21271;-72
2023/05/29 11:36:32;;;;;;;11.23;2.28;;;17.40;56.40;;;;;;5053916;28;20155;-73
2023/05/29 11:38:59;;;;;;;11.57;2.45;;;17.50;55.90;;;;;;5058521;28;20064;-73
2023/05/29 11:41:27;;;;;;;11.45;2.17;;;17.50;56.10;;;;;;5062427;28;20045;-73
2023/05/29 11:43:58;;;;;;;11.73;2.20;;;17.60;55.70;;;;;;5059827;28;20049;-73
2023/05/29 11:46:28;;;;;;;8.85;1.35;;;17.60;54.80;;;;;;5074035;28;20778;-73
2023/05/29 11:48:55;;;;;;;10.68;2.15;;;17.70;54.20;;;;;;5064902;28;20064;-73
2023/05/29 11:51:23;;;;;;;9.52;2.17;;;17.70;53.90;;;;;;5061513;28;20053;-73
2023/05/29 11:53:57;;;;;;;8.90;1.98;;;17.80;54.20;;;;;;5061228;28;20131;-72
2023/05/29 11:56:25;;;;;;;9.90;2.23;;;17.80;53.90;;;;;;5050308;28;20144;-73
2023/05/29 11:58:55;;;;;;;11.88;2.17;;;17.80;54.40;;;;;;5064038;28;20264;-73
2023/05/29 12:01:23;;;;;;;12.57;2.00;;;17.90;54.20;;;;;;5056981;28;20509;-73
2023/05/29 12:03:50;;;;;;;10.48;2.20;;;18.00;53.80;;;;;;5066121;28;20095;-73
2023/05/29 12:06:31;;;;;;;11.23;2.15;;;18.00;53.40;;;;;;5063952;28;20137;-73
2023/05/29 12:09:00;;;;;;;8.60;1.83;;;18.00;53.10;;;;;;5064660;28;20062;-73
2023/05/29 12:11:28;;;;;;;8.65;1.88;;;18.10;52.60;;;;;;5100920;28;20335;-72
2023/05/29 12:14:00;;;;;;;10.82;1.77;;;18.10;52.50;;;;;;5058035;28;20049;-72
2023/05/29 12:16:28;;;;;;;9.82;2.10;;;18.10;51.90;;;;;;5068171;28;20053;-72
2023/05/29 12:18:56;;;;;;;8.10;2.13;;;18.10;51.80;;;;;;5057609;28;20062;-73
2023/05/29 12:21:24;;;;;;;9.37;2.07;;;18.10;51.40;;;;;;5054237;28;20052;-75
2023/05/29 12:23:53;;;;;;;9.27;2.05;;;18.10;51.50;;;;;;5109285;27;20328;-74
2023/05/29 12:26:25;;;;;;;11.80;2.20;;;18.10;51.40;;;;;;5073212;28;20055;-74
2023/05/29 12:28:53;;;;;;;10.13;2.00;;;18.20;51.20;;;;;;5066419;28;20239;-75
2023/05/29 12:31:30;;;;;;;8.30;1.80;;;18.20;51.20;;;;;;5069425;28;20077;-75
2023/05/29 12:34:01;;;;;;;7.60;2.10;;;18.20;51.90;;;;;;5067026;28;20385;-75
2023/05/29 12:36:28;;;;;;;12.35;2.13;;;18.30;52.20;;;;;;5097206;27;20280;-76
2023/05/29 12:38:57;;;;;;;10.18;2.42;;;18.30;52.60;;;;;;5059636;28;20084;-75
2023/05/29 12:41:27;;;;;;;8.60;2.00;;;18.40;52.90;;;;;;5079606;28;20143;-75
2023/05/29 12:43:56;;;;;;;9.55;1.85;;;18.40;52.30;;;;;;5083322;28;20052;-75
2023/05/29 12:46:24;;;;;;;12.63;2.23;;;18.40;52.10;;;;;;5085279;28;21060;-75
2023/05/29 12:48:54;;;;;;;9.55;2.13;;;18.50;52.60;;;;;;5069913;28;20382;-75
2023/05/29 12:51:24;;;;;;;15.32;2.58;;;18.50;52.10;;;;;;5081465;28;20048;-72
2023/05/29 12:53:54;;;;;;;9.57;2.40;;;18.60;52.00;;;;;;5075012;28;20052;-73